ADDS TAF Board (Experimental) INFO

IDs: Format: Expanded Condensed

Updated at: 0741 UTC 31 Oct 2014

KTPA - Tampa Intl Arpt, FL, US

Issued at 0538 UTC 31 Oct 2014
Time0653Z31/08Z31/09Z31/10Z31/11Z31/12Z31/13Z31/14Z31/15Z31/16Z31/17Z31/18Z31/19Z31/20Z
TypeOBSPRVLPRVLPRVLPRVLPRVLPRVLPRVLPRVLPRVLPRVLPRVLPRVLPRVL
VIS9>6>6>6>6>6>6>6>6>6>6>6>6>6
CIG36806060606060--------------
CoverOVCBKNBKNBKNBKNBKNBKNSCTSCTSCTFEWFEWFEWFEW
FltCatVFRVFRVFRVFRVFRVFRVFRVFRVFRVFRVFRVFRVFRVFR
WX--VCSH------------------------
WDir350360360360360360360330330330310310310310
WSpd355555577711111111
WGst----------------------------
R01/19
XWnd10000004449999
HWnd35555556667777
R10/28
XWnd35555556667777
HWnd-1-0-0-0-0-0-0-4-4-4-9-9-9-9
Raw TAF
KTPA 310538Z 3106/0106 36005KT P6SM VCSH SCT030 BKN080
  FM310900 36005KT P6SM SCT030 BKN060
  FM311400 33007KT P6SM SCT040
  FM311700 31011KT P6SM FEW040
  FM312300 31006KT P6SM SKC


Raw METAR
KTPA 310653Z 35003KT 9SM FEW015 BKN036 BKN090 OVC140 22/19 A2987 RMK AO2 SLP115 T02170194

TAF Board Legend

Hazard VFR MVFR IFR LIFR
Visibility (sm) >5 3≤X≤5 1≤X<3 <1
Ceiling (100 ft) >30 10≤X≤30 5≤X<10 <5
Wind Speed (kt) <10 10≤X<20 20≤X<30 ≥30
Wind Gust (kt) <15 15≤X<25 25≤X<35 ≥35
Weather No Wx Reported VCTS,-TS,-FZRA TS,FZRA +TS,+FZRA


Page loaded:  07:41 UTC  |   12:41 AM Pacific  |   01:41 AM Mountain  |   02:41 AM Central  |   03:41 AM Eastern

 

ADVISORIES

FORECASTS

FORECASTS

OBSERVATIONS

USER TOOLS

ABOUT US